createdAt,value
2023-03-22T03:42:53.122Z,3.75
2023-03-22T03:43:57.675Z,4.03
2023-03-22T03:45:01.050Z,3.88
2023-03-22T03:46:06.698Z,3.60
2023-03-22T03:47:09.649Z,4.03
2023-03-22T03:48:18.525Z,4.15
2023-03-22T03:49:23.622Z,3.90
2023-03-22T03:50:26.884Z,3.75
2023-03-22T03:51:29.058Z,4.05
2023-03-22T03:52:31.639Z,3.83
2023-03-22T03:54:11.619Z,3.72
2023-03-22T03:55:13.906Z,3.40
2023-03-22T03:56:16.276Z,3.40
2023-03-22T03:57:18.649Z,3.35
2023-03-22T03:58:22.540Z,3.67
2023-03-22T03:59:24.926Z,4.00
2023-03-22T04:00:27.185Z,4.22
2023-03-22T04:01:29.485Z,4.57
2023-03-22T04:02:31.720Z,4.30
2023-03-22T04:03:33.984Z,4.70
2023-03-22T04:04:36.165Z,4.82
2023-03-22T04:05:38.976Z,5.13
2023-03-22T04:06:41.761Z,4.20
2023-03-22T04:07:43.973Z,4.28
2023-03-22T04:08:46.165Z,4.20
2023-03-22T04:09:48.482Z,4.53
2023-03-22T04:10:51.826Z,4.50
2023-03-22T04:11:54.328Z,4.60
2023-03-22T04:12:56.501Z,4.20
2023-03-22T04:14:00.107Z,4.65
2023-03-22T04:15:03.011Z,3.97
2023-03-22T04:16:06.050Z,4.68
2023-03-22T04:17:09.846Z,4.20
2023-03-22T04:18:11.911Z,5.07
2023-03-22T04:19:14.360Z,5.82
2023-03-22T04:20:16.993Z,7.40
2023-03-22T04:21:19.851Z,7.47
2023-03-22T04:22:22.493Z,8.57
2023-03-22T04:24:28.575Z,5.73
2023-03-22T08:50:43.182Z,5.97
2023-03-22T08:51:47.550Z,5.93
2023-03-22T08:52:51.714Z,6.25
2023-03-22T08:53:53.896Z,5.68
2023-03-22T08:54:56.431Z,6.43
2023-03-22T08:56:02.241Z,5.93
2023-03-22T08:57:04.704Z,6.82
2023-03-22T08:58:06.873Z,6.07
2023-03-22T08:59:10.458Z,5.82
2023-03-22T09:00:16.331Z,6.50
